Terminal Aerodrome Forecast
Issued by NWS Twin Cities, MN

Home | Current Version | Previous Version | Text Only | Print | Product List | Glossary On
Versions: 1 2 3 4 5 6 7 8 9 10 11 12
113
FTUS43 KMPX 031737
TAFSTC
TAF
KSTC 031737Z 0318/0418 27013G24KT P6SM BKN100
     FM032000 30018G28KT P6SM SCT100 BKN200
     FM040100 34007KT P6SM SKC
     FM041600 35015G21KT P6SM FEW250=

USA.gov is the U.S. government's official web portal to all federal, state and local government web resources and services.